sensor_id;sensor_type;location;lat;lon;timestamp;P1;durP1;ratioP1;P2;durP2;ratioP2
49488;SDS011;35382;51.484;11.476;2023-03-29T00:00:28;11.35;;;3.45;;
49488;SDS011;35382;51.484;11.476;2023-03-29T00:02:10;8.70;;;3.05;;
49488;SDS011;35382;51.484;11.476;2023-03-29T00:03:50;6.57;;;2.85;;
49488;SDS011;35382;51.484;11.476;2023-03-29T00:05:33;6.65;;;2.90;;
49488;SDS011;35382;51.484;11.476;2023-03-29T00:07:14;7.60;;;3.13;;
49488;SDS011;35382;51.484;11.476;2023-03-29T00:08:55;7.93;;;3.13;;
49488;SDS011;35382;51.484;11.476;2023-03-29T00:10:36;11.05;;;3.50;;
49488;SDS011;35382;51.484;11.476;2023-03-29T00:12:17;8.60;;;3.03;;
49488;SDS011;35382;51.484;11.476;2023-03-29T00:13:58;7.47;;;3.10;;
49488;SDS011;35382;51.484;11.476;2023-03-29T00:15:40;8.57;;;3.25;;
49488;SDS011;35382;51.484;11.476;2023-03-29T00:17:21;6.85;;;2.78;;
49488;SDS011;35382;51.484;11.476;2023-03-29T00:19:02;6.40;;;3.13;;
49488;SDS011;35382;51.484;11.476;2023-03-29T00:20:44;7.40;;;3.50;;
49488;SDS011;35382;51.484;11.476;2023-03-29T00:22:25;8.70;;;3.08;;
49488;SDS011;35382;51.484;11.476;2023-03-29T00:24:06;9.85;;;2.90;;
49488;SDS011;35382;51.484;11.476;2023-03-29T00:25:47;13.27;;;2.97;;
49488;SDS011;35382;51.484;11.476;2023-03-29T00:27:28;9.13;;;2.97;;
49488;SDS011;35382;51.484;11.476;2023-03-29T00:29:09;9.90;;;3.28;;
49488;SDS011;35382;51.484;11.476;2023-03-29T00:30:50;8.23;;;3.22;;
49488;SDS011;35382;51.484;11.476;2023-03-29T00:32:31;9.10;;;3.15;;
49488;SDS011;35382;51.484;11.476;2023-03-29T00:34:13;8.32;;;3.22;;
49488;SDS011;35382;51.484;11.476;2023-03-29T00:35:54;8.60;;;3.22;;
49488;SDS011;35382;51.484;11.476;2023-03-29T00:37:35;9.88;;;3.38;;
49488;SDS011;35382;51.484;11.476;2023-03-29T00:39:18;7.53;;;3.08;;
49488;SDS011;35382;51.484;11.476;2023-03-29T00:41:00;10.05;;;3.10;;
49488;SDS011;35382;51.484;11.476;2023-03-29T00:42:44;10.75;;;3.28;;
49488;SDS011;35382;51.484;11.476;2023-03-29T00:46:31;9.90;;;3.25;;
49488;SDS011;35382;51.484;11.476;2023-03-29T00:48:15;6.53;;;2.75;;
49488;SDS011;35382;51.484;11.476;2023-03-29T00:49:58;11.13;;;3.42;;
49488;SDS011;35382;51.484;11.476;2023-03-29T00:51:44;8.35;;;4.07;;
49488;SDS011;35382;51.484;11.476;2023-03-29T00:53:29;8.25;;;3.83;;
49488;SDS011;35382;51.484;11.476;2023-03-29T00:55:33;7.47;;;3.00;;
49488;SDS011;35382;51.484;11.476;2023-03-29T00:57:18;5.30;;;2.78;;
49488;SDS011;35382;51.484;11.476;2023-03-29T00:59:03;9.38;;;2.70;;
49488;SDS011;35382;51.484;11.476;2023-03-29T01:00:51;7.35;;;3.25;;
49488;SDS011;35382;51.484;11.476;2023-03-29T01:02:37;6.65;;;3.47;;
49488;SDS011;35382;51.484;11.476;2023-03-29T01:04:23;7.15;;;3.10;;
49488;SDS011;35382;51.484;11.476;2023-03-29T01:06:16;10.23;;;3.27;;
49488;SDS011;35382;51.484;11.476;2023-03-29T01:08:02;7.68;;;3.30;;
49488;SDS011;35382;51.484;11.476;2023-03-29T01:09:47;9.50;;;3.50;;
49488;SDS011;35382;51.484;11.476;2023-03-29T01:11:43;6.97;;;3.50;;
49488;SDS011;35382;51.484;11.476;2023-03-29T01:13:33;9.88;;;2.90;;
49488;SDS011;35382;51.484;11.476;2023-03-29T01:15:21;7.65;;;2.90;;
49488;SDS011;35382;51.484;11.476;2023-03-29T01:17:06;7.03;;;2.92;;
49488;SDS011;35382;51.484;11.476;2023-03-29T01:18:47;9.82;;;3.00;;
49488;SDS011;35382;51.484;11.476;2023-03-29T01:20:53;7.55;;;2.83;;
49488;SDS011;35382;51.484;11.476;2023-03-29T01:25:06;6.78;;;2.88;;
49488;SDS011;35382;51.484;11.476;2023-03-29T01:27:07;10.02;;;3.72;;
49488;SDS011;35382;51.484;11.476;2023-03-29T01:28:56;8.77;;;3.28;;
49488;SDS011;35382;51.484;11.476;2023-03-29T01:30:52;9.55;;;3.20;;
49488;SDS011;35382;51.484;11.476;2023-03-29T01:32:44;5.72;;;3.10;;
49488;SDS011;35382;51.484;11.476;2023-03-29T01:34:34;8.95;;;3.10;;
49488;SDS011;35382;51.484;11.476;2023-03-29T01:36:32;7.03;;;2.72;;
49488;SDS011;35382;51.484;11.476;2023-03-29T01:38:22;7.93;;;2.83;;
49488;SDS011;35382;51.484;11.476;2023-03-29T01:40:09;7.22;;;3.10;;
49488;SDS011;35382;51.484;11.476;2023-03-29T01:42:11;10.30;;;3.10;;
49488;SDS011;35382;51.484;11.476;2023-03-29T01:44:00;7.85;;;3.05;;
49488;SDS011;35382;51.484;11.476;2023-03-29T01:45:48;6.80;;;2.97;;
49488;SDS011;35382;51.484;11.476;2023-03-29T01:47:43;7.03;;;2.90;;
49488;SDS011;35382;51.484;11.476;2023-03-29T01:49:32;7.57;;;2.85;;
49488;SDS011;35382;51.484;11.476;2023-03-29T01:51:23;10.07;;;3.78;;
49488;SDS011;35382;51.484;11.476;2023-03-29T01:53:09;9.45;;;3.30;;
49488;SDS011;35382;51.484;11.476;2023-03-29T01:55:07;8.73;;;3.40;;
49488;SDS011;35382;51.484;11.476;2023-03-29T01:56:51;8.02;;;3.40;;
49488;SDS011;35382;51.484;11.476;2023-03-29T01:58:35;10.43;;;3.40;;
49488;SDS011;35382;51.484;11.476;2023-03-29T02:00:20;6.95;;;2.95;;
49488;SDS011;35382;51.484;11.476;2023-03-29T02:02:06;9.98;;;3.60;;
49488;SDS011;35382;51.484;11.476;2023-03-29T02:03:53;7.95;;;3.40;;
49488;SDS011;35382;51.484;11.476;2023-03-29T02:05:38;6.78;;;3.38;;
49488;SDS011;35382;51.484;11.476;2023-03-29T02:07:24;9.48;;;3.25;;
49488;SDS011;35382;51.484;11.476;2023-03-29T02:09:10;7.00;;;3.10;;
49488;SDS011;35382;51.484;11.476;2023-03-29T02:10:52;11.10;;;3.35;;
49488;SDS011;35382;51.484;11.476;2023-03-29T02:12:33;8.85;;;3.17;;
49488;SDS011;35382;51.484;11.476;2023-03-29T02:14:15;8.45;;;3.15;;
49488;SDS011;35382;51.484;11.476;2023-03-29T02:15:56;6.88;;;3.17;;
49488;SDS011;35382;51.484;11.476;2023-03-29T02:17:40;6.75;;;3.10;;
49488;SDS011;35382;51.484;11.476;2023-03-29T02:19:23;11.60;;;3.70;;
49488;SDS011;35382;51.484;11.476;2023-03-29T02:21:05;7.72;;;3.30;;
49488;SDS011;35382;51.484;11.476;2023-03-29T02:24:41;7.85;;;3.67;;
49488;SDS011;35382;51.484;11.476;2023-03-29T02:26:26;9.52;;;3.50;;
49488;SDS011;35382;51.484;11.476;2023-03-29T02:28:09;5.97;;;2.95;;
49488;SDS011;35382;51.484;11.476;2023-03-29T02:29:51;8.05;;;2.95;;
49488;SDS011;35382;51.484;11.476;2023-03-29T02:31:37;7.47;;;3.08;;
49488;SDS011;35382;51.484;11.476;2023-03-29T02:35:30;8.60;;;3.42;;
49488;SDS011;35382;51.484;11.476;2023-03-29T02:37:15;6.03;;;2.83;;
49488;SDS011;35382;51.484;11.476;2023-03-29T02:38:59;7.90;;;3.33;;
49488;SDS011;35382;51.484;11.476;2023-03-29T02:40:43;8.05;;;3.40;;
49488;SDS011;35382;51.484;11.476;2023-03-29T02:42:26;6.82;;;3.25;;
49488;SDS011;35382;51.484;11.476;2023-03-29T02:44:09;8.85;;;3.60;;
49488;SDS011;35382;51.484;11.476;2023-03-29T02:45:53;7.80;;;3.25;;
49488;SDS011;35382;51.484;11.476;2023-03-29T02:47:43;7.20;;;3.97;;
49488;SDS011;35382;51.484;11.476;2023-03-29T02:49:27;6.72;;;3.33;;
49488;SDS011;35382;51.484;11.476;2023-03-29T02:51:13;8.68;;;3.20;;
49488;SDS011;35382;51.484;11.476;2023-03-29T02:52:58;7.10;;;3.25;;
49488;SDS011;35382;51.484;11.476;2023-03-29T02:54:44;5.97;;;3.03;;
49488;SDS011;35382;51.484;11.476;2023-03-29T02:56:28;7.47;;;3.17;;
49488;SDS011;35382;51.484;11.476;2023-03-29T02:58:09;7.93;;;3.08;;
49488;SDS011;35382;51.484;11.476;2023-03-29T02:59:52;6.85;;;3.13;;
49488;SDS011;35382;51.484;11.476;2023-03-29T03:01:34;6.65;;;3.00;;
49488;SDS011;35382;51.484;11.476;2023-03-29T03:03:16;6.35;;;3.25;;
49488;SDS011;35382;51.484;11.476;2023-03-29T03:05:00;6.13;;;2.88;;
49488;SDS011;35382;51.484;11.476;2023-03-29T03:06:41;7.20;;;3.25;;
49488;SDS011;35382;51.484;11.476;2023-03-29T03:08:24;6.88;;;2.83;;
49488;SDS011;35382;51.484;11.476;2023-03-29T03:10:07;7.32;;;3.47;;
49488;SDS011;35382;51.484;11.476;2023-03-29T03:11:51;6.22;;;3.83;;
49488;SDS011;35382;51.484;11.476;2023-03-29T03:13:32;6.38;;;3.58;;
49488;SDS011;35382;51.484;11.476;2023-03-29T03:15:13;7.32;;;3.53;;
49488;SDS011;35382;51.484;11.476;2023-03-29T03:16:54;9.63;;;3.63;;
49488;SDS011;35382;51.484;11.476;2023-03-29T03:18:37;7.97;;;3.67;;
49488;SDS011;35382;51.484;11.476;2023-03-29T03:20:19;9.88;;;3.28;;
49488;SDS011;35382;51.484;11.476;2023-03-29T03:22:02;8.98;;;3.30;;
49488;SDS011;35382;51.484;11.476;2023-03-29T03:23:46;9.98;;;4.07;;
49488;SDS011;35382;51.484;11.476;2023-03-29T03:25:28;7.15;;;3.17;;
49488;SDS011;35382;51.484;11.476;2023-03-29T03:27:09;10.60;;;3.75;;
49488;SDS011;35382;51.484;11.476;2023-03-29T03:28:50;9.35;;;2.97;;
49488;SDS011;35382;51.484;11.476;2023-03-29T03:30:51;11.40;;;3.50;;
49488;SDS011;35382;51.484;11.476;2023-03-29T03:32:35;8.45;;;3.35;;
49488;SDS011;35382;51.484;11.476;2023-03-29T03:34:34;6.53;;;2.80;;
49488;SDS011;35382;51.484;11.476;2023-03-29T03:36:16;7.93;;;3.38;;
49488;SDS011;35382;51.484;11.476;2023-03-29T03:37:59;6.97;;;3.00;;
49488;SDS011;35382;51.484;11.476;2023-03-29T03:39:41;10.15;;;3.47;;
49488;SDS011;35382;51.484;11.476;2023-03-29T03:41:24;8.60;;;3.35;;
49488;SDS011;35382;51.484;11.476;2023-03-29T03:43:06;15.40;;;5.35;;
49488;SDS011;35382;51.484;11.476;2023-03-29T03:44:47;10.18;;;4.50;;
49488;SDS011;35382;51.484;11.476;2023-03-29T03:47:00;9.98;;;3.67;;
49488;SDS011;35382;51.484;11.476;2023-03-29T03:48:41;6.80;;;3.33;;
49488;SDS011;35382;51.484;11.476;2023-03-29T03:52:10;7.78;;;3.28;;
49488;SDS011;35382;51.484;11.476;2023-03-29T03:53:52;8.60;;;3.45;;
49488;SDS011;35382;51.484;11.476;2023-03-29T03:56:02;8.50;;;3.35;;
49488;SDS011;35382;51.484;11.476;2023-03-29T03:57:51;8.07;;;3.90;;
49488;SDS011;35382;51.484;11.476;2023-03-29T03:59:34;6.30;;;3.28;;
49488;SDS011;35382;51.484;11.476;2023-03-29T04:01:20;10.13;;;3.70;;
49488;SDS011;35382;51.484;11.476;2023-03-29T04:03:12;9.73;;;3.67;;
49488;SDS011;35382;51.484;11.476;2023-03-29T04:04:55;8.93;;;3.70;;
49488;SDS011;35382;51.484;11.476;2023-03-29T04:06:42;9.18;;;3.67;;
49488;SDS011;35382;51.484;11.476;2023-03-29T04:08:44;9.55;;;4.03;;
49488;SDS011;35382;51.484;11.476;2023-03-29T04:10:38;8.93;;;4.43;;
49488;SDS011;35382;51.484;11.476;2023-03-29T04:12:27;8.90;;;4.40;;
49488;SDS011;35382;51.484;11.476;2023-03-29T04:14:08;8.90;;;4.25;;
49488;SDS011;35382;51.484;11.476;2023-03-29T04:16:11;8.05;;;3.92;;
49488;SDS011;35382;51.484;11.476;2023-03-29T04:17:52;8.77;;;3.78;;
49488;SDS011;35382;51.484;11.476;2023-03-29T04:19:47;10.90;;;4.20;;
49488;SDS011;35382;51.484;11.476;2023-03-29T04:21:28;9.77;;;3.60;;
49488;SDS011;35382;51.484;11.476;2023-03-29T04:23:09;7.63;;;4.05;;
49488;SDS011;35382;51.484;11.476;2023-03-29T04:24:51;8.27;;;4.07;;
49488;SDS011;35382;51.484;11.476;2023-03-29T04:26:52;8.55;;;3.95;;
49488;SDS011;35382;51.484;11.476;2023-03-29T04:28:38;8.48;;;4.13;;
49488;SDS011;35382;51.484;11.476;2023-03-29T04:30:28;11.93;;;4.15;;
49488;SDS011;35382;51.484;11.476;2023-03-29T04:32:28;9.85;;;4.20;;
49488;SDS011;35382;51.484;11.476;2023-03-29T04:34:19;8.48;;;4.45;;
49488;SDS011;35382;51.484;11.476;2023-03-29T04:36:02;9.23;;;4.35;;
49488;SDS011;35382;51.484;11.476;2023-03-29T04:37:45;10.80;;;4.18;;
49488;SDS011;35382;51.484;11.476;2023-03-29T04:39:29;8.13;;;4.07;;
49488;SDS011;35382;51.484;11.476;2023-03-29T04:41:12;9.35;;;4.50;;
49488;SDS011;35382;51.484;11.476;2023-03-29T04:43:07;11.55;;;4.32;;
49488;SDS011;35382;51.484;11.476;2023-03-29T04:44:50;8.82;;;4.07;;
49488;SDS011;35382;51.484;11.476;2023-03-29T04:46:40;8.93;;;4.15;;
49488;SDS011;35382;51.484;11.476;2023-03-29T04:48:41;9.20;;;4.63;;
49488;SDS011;35382;51.484;11.476;2023-03-29T04:50:22;9.38;;;4.72;;
49488;SDS011;35382;51.484;11.476;2023-03-29T04:52:03;9.80;;;4.20;;
49488;SDS011;35382;51.484;11.476;2023-03-29T04:53:45;9.23;;;4.60;;
49488;SDS011;35382;51.484;11.476;2023-03-29T04:55:29;11.18;;;4.15;;
49488;SDS011;35382;51.484;11.476;2023-03-29T04:57:15;10.85;;;3.78;;
49488;SDS011;35382;51.484;11.476;2023-03-29T04:58:56;7.55;;;3.88;;
49488;SDS011;35382;51.484;11.476;2023-03-29T05:00:38;6.85;;;3.88;;
49488;SDS011;35382;51.484;11.476;2023-03-29T05:02:37;9.55;;;4.63;;
49488;SDS011;35382;51.484;11.476;2023-03-29T05:04:18;9.50;;;4.03;;
49488;SDS011;35382;51.484;11.476;2023-03-29T05:06:14;8.13;;;4.10;;
49488;SDS011;35382;51.484;11.476;2023-03-29T05:07:56;6.70;;;3.85;;
49488;SDS011;35382;51.484;11.476;2023-03-29T05:09:43;9.25;;;4.13;;
49488;SDS011;35382;51.484;11.476;2023-03-29T05:11:26;8.82;;;3.80;;
49488;SDS011;35382;51.484;11.476;2023-03-29T05:13:08;11.95;;;4.22;;
49488;SDS011;35382;51.484;11.476;2023-03-29T05:14:50;7.38;;;3.95;;
49488;SDS011;35382;51.484;11.476;2023-03-29T05:16:31;8.65;;;4.20;;
49488;SDS011;35382;51.484;11.476;2023-03-29T05:18:14;7.75;;;3.80;;
49488;SDS011;35382;51.484;11.476;2023-03-29T05:19:55;8.52;;;3.72;;
49488;SDS011;35382;51.484;11.476;2023-03-29T05:21:39;8.77;;;3.80;;
49488;SDS011;35382;51.484;11.476;2023-03-29T05:23:23;9.68;;;4.40;;
49488;SDS011;35382;51.484;11.476;2023-03-29T05:25:22;7.43;;;3.45;;
49488;SDS011;35382;51.484;11.476;2023-03-29T05:27:06;8.18;;;3.95;;
49488;SDS011;35382;51.484;11.476;2023-03-29T05:28:49;8.45;;;3.65;;
49488;SDS011;35382;51.484;11.476;2023-03-29T05:30:31;9.13;;;4.22;;
49488;SDS011;35382;51.484;11.476;2023-03-29T05:32:19;8.65;;;3.88;;
49488;SDS011;35382;51.484;11.476;2023-03-29T05:34:00;10.75;;;4.20;;
49488;SDS011;35382;51.484;11.476;2023-03-29T05:35:43;7.80;;;4.40;;
49488;SDS011;35382;51.484;11.476;2023-03-29T05:37:25;10.20;;;4.78;;
49488;SDS011;35382;51.484;11.476;2023-03-29T05:39:11;8.70;;;3.65;;
49488;SDS011;35382;51.484;11.476;2023-03-29T05:40:54;8.35;;;4.05;;
49488;SDS011;35382;51.484;11.476;2023-03-29T05:43:14;9.80;;;4.30;;
49488;SDS011;35382;51.484;11.476;2023-03-29T05:44:55;10.90;;;4.00;;
49488;SDS011;35382;51.484;11.476;2023-03-29T05:46:36;8.52;;;4.18;;
49488;SDS011;35382;51.484;11.476;2023-03-29T05:48:20;8.75;;;3.85;;
49488;SDS011;35382;51.484;11.476;2023-03-29T05:50:02;9.32;;;4.22;;
49488;SDS011;35382;51.484;11.476;2023-03-29T05:51:44;10.07;;;4.20;;
49488;SDS011;35382;51.484;11.476;2023-03-29T05:53:26;8.32;;;4.03;;
49488;SDS011;35382;51.484;11.476;2023-03-29T05:55:08;11.40;;;4.10;;
49488;SDS011;35382;51.484;11.476;2023-03-29T05:56:49;7.95;;;3.83;;
49488;SDS011;35382;51.484;11.476;2023-03-29T05:58:31;6.50;;;4.00;;
49488;SDS011;35382;51.484;11.476;2023-03-29T06:00:13;9.30;;;4.45;;
49488;SDS011;35382;51.484;11.476;2023-03-29T06:01:59;9.20;;;4.15;;
49488;SDS011;35382;51.484;11.476;2023-03-29T06:03:50;7.40;;;3.90;;
49488;SDS011;35382;51.484;11.476;2023-03-29T06:05:37;7.05;;;4.10;;
49488;SDS011;35382;51.484;11.476;2023-03-29T06:07:19;8.75;;;4.22;;
49488;SDS011;35382;51.484;11.476;2023-03-29T06:09:19;6.10;;;3.90;;
49488;SDS011;35382;51.484;11.476;2023-03-29T06:11:26;10.57;;;4.30;;
49488;SDS011;35382;51.484;11.476;2023-03-29T06:13:30;6.43;;;4.03;;
49488;SDS011;35382;51.484;11.476;2023-03-29T06:15:16;10.48;;;4.47;;
49488;SDS011;35382;51.484;11.476;2023-03-29T06:17:00;8.77;;;4.50;;
49488;SDS011;35382;51.484;11.476;2023-03-29T06:18:42;8.45;;;4.50;;
49488;SDS011;35382;51.484;11.476;2023-03-29T06:20:24;10.40;;;4.50;;
49488;SDS011;35382;51.484;11.476;2023-03-29T06:22:11;8.32;;;4.65;;
49488;SDS011;35382;51.484;11.476;2023-03-29T06:23:52;8.55;;;4.40;;
49488;SDS011;35382;51.484;11.476;2023-03-29T06:25:33;8.38;;;4.55;;
49488;SDS011;35382;51.484;11.476;2023-03-29T06:27:15;8.23;;;4.50;;
49488;SDS011;35382;51.484;11.476;2023-03-29T06:28:56;7.90;;;4.53;;
49488;SDS011;35382;51.484;11.476;2023-03-29T06:30:38;7.78;;;4.90;;
49488;SDS011;35382;51.484;11.476;2023-03-29T06:32:19;9.07;;;4.07;;
49488;SDS011;35382;51.484;11.476;2023-03-29T06:34:23;9.77;;;4.28;;
49488;SDS011;35382;51.484;11.476;2023-03-29T06:36:14;9.43;;;5.47;;
49488;SDS011;35382;51.484;11.476;2023-03-29T06:37:56;9.10;;;5.07;;
49488;SDS011;35382;51.484;11.476;2023-03-29T06:39:45;9.65;;;4.10;;
49488;SDS011;35382;51.484;11.476;2023-03-29T06:41:40;12.40;;;4.63;;
49488;SDS011;35382;51.484;11.476;2023-03-29T06:43:21;8.48;;;4.65;;
49488;SDS011;35382;51.484;11.476;2023-03-29T06:45:19;7.88;;;4.72;;
49488;SDS011;35382;51.484;11.476;2023-03-29T06:47:03;7.60;;;4.43;;
49488;SDS011;35382;51.484;11.476;2023-03-29T06:48:44;8.65;;;5.22;;
49488;SDS011;35382;51.484;11.476;2023-03-29T06:50:28;8.50;;;4.30;;
49488;SDS011;35382;51.484;11.476;2023-03-29T06:52:21;8.50;;;4.30;;
49488;SDS011;35382;51.484;11.476;2023-03-29T06:54:02;7.32;;;4.72;;
49488;SDS011;35382;51.484;11.476;2023-03-29T06:55:44;8.93;;;4.47;;
49488;SDS011;35382;51.484;11.476;2023-03-29T06:58:00;8.35;;;4.38;;
49488;SDS011;35382;51.484;11.476;2023-03-29T06:59:42;10.50;;;5.13;;
49488;SDS011;35382;51.484;11.476;2023-03-29T07:01:45;8.27;;;4.97;;
49488;SDS011;35382;51.484;11.476;2023-03-29T07:03:36;10.90;;;5.28;;
49488;SDS011;35382;51.484;11.476;2023-03-29T07:05:19;10.55;;;5.35;;
49488;SDS011;35382;51.484;11.476;2023-03-29T07:07:02;11.02;;;5.32;;
49488;SDS011;35382;51.484;11.476;2023-03-29T07:08:47;8.60;;;4.90;;
49488;SDS011;35382;51.484;11.476;2023-03-29T07:10:41;10.48;;;5.43;;
49488;SDS011;35382;51.484;11.476;2023-03-29T07:12:42;8.48;;;5.03;;
49488;SDS011;35382;51.484;11.476;2023-03-29T07:14:27;14.13;;;5.63;;
49488;SDS011;35382;51.484;11.476;2023-03-29T07:16:11;8.75;;;4.85;;
49488;SDS011;35382;51.484;11.476;2023-03-29T07:18:00;10.35;;;5.57;;
49488;SDS011;35382;51.484;11.476;2023-03-29T07:19:44;9.57;;;5.30;;
49488;SDS011;35382;51.484;11.476;2023-03-29T07:21:45;8.93;;;5.20;;
49488;SDS011;35382;51.484;11.476;2023-03-29T07:23:28;10.73;;;5.55;;
49488;SDS011;35382;51.484;11.476;2023-03-29T07:25:09;9.27;;;4.80;;
49488;SDS011;35382;51.484;11.476;2023-03-29T07:26:52;9.45;;;5.35;;
49488;SDS011;35382;51.484;11.476;2023-03-29T07:28:33;10.10;;;5.40;;
49488;SDS011;35382;51.484;11.476;2023-03-29T07:30:18;11.10;;;5.70;;
49488;SDS011;35382;51.484;11.476;2023-03-29T07:32:02;10.38;;;5.65;;
49488;SDS011;35382;51.484;11.476;2023-03-29T07:34:03;8.60;;;5.20;;
49488;SDS011;35382;51.484;11.476;2023-03-29T07:35:46;10.13;;;5.00;;
49488;SDS011;35382;51.484;11.476;2023-03-29T07:37:27;9.30;;;5.05;;
49488;SDS011;35382;51.484;11.476;2023-03-29T07:39:10;9.98;;;5.40;;
49488;SDS011;35382;51.484;11.476;2023-03-29T07:41:02;9.70;;;4.30;;
49488;SDS011;35382;51.484;11.476;2023-03-29T07:43:04;10.18;;;5.10;;
49488;SDS011;35382;51.484;11.476;2023-03-29T07:44:53;10.38;;;4.95;;
49488;SDS011;35382;51.484;11.476;2023-03-29T07:46:49;10.32;;;5.28;;
49488;SDS011;35382;51.484;11.476;2023-03-29T07:48:30;11.10;;;5.38;;
49488;SDS011;35382;51.484;11.476;2023-03-29T07:50:19;9.35;;;5.15;;
49488;SDS011;35382;51.484;11.476;2023-03-29T07:52:01;8.35;;;5.22;;
49488;SDS011;35382;51.484;11.476;2023-03-29T07:53:46;8.77;;;4.95;;
49488;SDS011;35382;51.484;11.476;2023-03-29T07:55:47;9.85;;;5.15;;
49488;SDS011;35382;51.484;11.476;2023-03-29T07:57:58;8.27;;;4.50;;
49488;SDS011;35382;51.484;11.476;2023-03-29T07:59:49;7.45;;;4.72;;
49488;SDS011;35382;51.484;11.476;2023-03-29T08:01:37;8.10;;;5.50;;
49488;SDS011;35382;51.484;11.476;2023-03-29T08:03:30;9.75;;;4.97;;
49488;SDS011;35382;51.484;11.476;2023-03-29T08:05:12;10.43;;;5.20;;
49488;SDS011;35382;51.484;11.476;2023-03-29T08:07:02;7.85;;;4.80;;
49488;SDS011;35382;51.484;11.476;2023-03-29T08:09:05;10.52;;;5.13;;
49488;SDS011;35382;51.484;11.476;2023-03-29T08:10:46;11.27;;;5.00;;
49488;SDS011;35382;51.484;11.476;2023-03-29T08:12:45;9.48;;;5.32;;
49488;SDS011;35382;51.484;11.476;2023-03-29T08:14:28;8.30;;;5.53;;
49488;SDS011;35382;51.484;11.476;2023-03-29T08:16:32;11.18;;;5.50;;
49488;SDS011;35382;51.484;11.476;2023-03-29T08:18:24;8.02;;;4.90;;
49488;SDS011;35382;51.484;11.476;2023-03-29T08:20:06;8.45;;;4.65;;
49488;SDS011;35382;51.484;11.476;2023-03-29T08:21:51;8.38;;;5.10;;
49488;SDS011;35382;51.484;11.476;2023-03-29T08:23:35;8.23;;;5.65;;
49488;SDS011;35382;51.484;11.476;2023-03-29T08:25:38;10.88;;;5.28;;
49488;SDS011;35382;51.484;11.476;2023-03-29T08:27:20;8.75;;;4.55;;
49488;SDS011;35382;51.484;11.476;2023-03-29T08:29:01;9.05;;;5.57;;
49488;SDS011;35382;51.484;11.476;2023-03-29T08:30:42;8.05;;;4.78;;
49488;SDS011;35382;51.484;11.476;2023-03-29T08:32:24;9.82;;;5.03;;
49488;SDS011;35382;51.484;11.476;2023-03-29T08:34:05;8.57;;;4.97;;
49488;SDS011;35382;51.484;11.476;2023-03-29T08:35:58;7.75;;;5.30;;
49488;SDS011;35382;51.484;11.476;2023-03-29T08:37:43;8.52;;;5.00;;
49488;SDS011;35382;51.484;11.476;2023-03-29T08:39:27;7.85;;;5.30;;
49488;SDS011;35382;51.484;11.476;2023-03-29T08:43:45;8.02;;;5.32;;
49488;SDS011;35382;51.484;11.476;2023-03-29T08:46:00;9.88;;;5.53;;
49488;SDS011;35382;51.484;11.476;2023-03-29T08:48:19;10.38;;;5.13;;
49488;SDS011;35382;51.484;11.476;2023-03-29T08:50:06;8.45;;;5.45;;
49488;SDS011;35382;51.484;11.476;2023-03-29T08:51:59;9.23;;;5.53;;
49488;SDS011;35382;51.484;11.476;2023-03-29T08:53:45;10.20;;;5.43;;
49488;SDS011;35382;51.484;11.476;2023-03-29T08:55:41;9.02;;;5.40;;
49488;SDS011;35382;51.484;11.476;2023-03-29T08:57:50;10.30;;;5.57;;
49488;SDS011;35382;51.484;11.476;2023-03-29T08:59:42;8.40;;;5.47;;
49488;SDS011;35382;51.484;11.476;2023-03-29T09:01:27;8.80;;;5.68;;
49488;SDS011;35382;51.484;11.476;2023-03-29T09:03:30;8.90;;;5.35;;
49488;SDS011;35382;51.484;11.476;2023-03-29T09:05:26;11.50;;;5.78;;
49488;SDS011;35382;51.484;11.476;2023-03-29T09:07:24;8.35;;;5.53;;
49488;SDS011;35382;51.484;11.476;2023-03-29T09:09:13;11.55;;;5.95;;
49488;SDS011;35382;51.484;11.476;2023-03-29T09:11:02;9.57;;;6.07;;
49488;SDS011;35382;51.484;11.476;2023-03-29T09:13:05;8.57;;;5.55;;
49488;SDS011;35382;51.484;11.476;2023-03-29T09:15:08;10.82;;;6.05;;
49488;SDS011;35382;51.484;11.476;2023-03-29T09:17:03;9.65;;;5.93;;
49488;SDS011;35382;51.484;11.476;2023-03-29T09:20:38;10.68;;;6.30;;
49488;SDS011;35382;51.484;11.476;2023-03-29T09:26:39;11.18;;;5.80;;
49488;SDS011;35382;51.484;11.476;2023-03-29T09:28:54;8.70;;;5.65;;
49488;SDS011;35382;51.484;11.476;2023-03-29T09:30:57;10.02;;;6.57;;
49488;SDS011;35382;51.484;11.476;2023-03-29T09:32:50;8.55;;;5.78;;
49488;SDS011;35382;51.484;11.476;2023-03-29T09:34:40;8.88;;;6.00;;
49488;SDS011;35382;51.484;11.476;2023-03-29T09:38:42;12.27;;;5.63;;
49488;SDS011;35382;51.484;11.476;2023-03-29T09:40:27;9.85;;;6.10;;
49488;SDS011;35382;51.484;11.476;2023-03-29T09:42:20;11.60;;;5.95;;
49488;SDS011;35382;51.484;11.476;2023-03-29T09:44:06;9.18;;;5.80;;
49488;SDS011;35382;51.484;11.476;2023-03-29T09:45:51;10.63;;;6.53;;
49488;SDS011;35382;51.484;11.476;2023-03-29T09:47:43;12.00;;;6.47;;
49488;SDS011;35382;51.484;11.476;2023-03-29T09:49:32;8.40;;;5.57;;
49488;SDS011;35382;51.484;11.476;2023-03-29T09:51:18;11.95;;;5.82;;
49488;SDS011;35382;51.484;11.476;2023-03-29T09:53:02;7.53;;;5.30;;
49488;SDS011;35382;51.484;11.476;2023-03-29T09:54:47;9.45;;;5.88;;
49488;SDS011;35382;51.484;11.476;2023-03-29T09:56:47;10.38;;;5.85;;
49488;SDS011;35382;51.484;11.476;2023-03-29T09:58:33;9.98;;;5.57;;
49488;SDS011;35382;51.484;11.476;2023-03-29T10:00:15;11.93;;;6.20;;
49488;SDS011;35382;51.484;11.476;2023-03-29T10:02:07;9.30;;;5.63;;
49488;SDS011;35382;51.484;11.476;2023-03-29T10:03:53;9.45;;;4.85;;
49488;SDS011;35382;51.484;11.476;2023-03-29T10:05:35;9.00;;;5.40;;
49488;SDS011;35382;51.484;11.476;2023-03-29T10:07:20;7.65;;;5.05;;
49488;SDS011;35382;51.484;11.476;2023-03-29T10:09:21;9.65;;;5.35;;
49488;SDS011;35382;51.484;11.476;2023-03-29T10:11:11;8.93;;;5.60;;
49488;SDS011;35382;51.484;11.476;2023-03-29T10:13:02;11.10;;;5.85;;
49488;SDS011;35382;51.484;11.476;2023-03-29T10:14:46;8.65;;;5.90;;
49488;SDS011;35382;51.484;11.476;2023-03-29T10:16:39;9.70;;;6.15;;
49488;SDS011;35382;51.484;11.476;2023-03-29T10:18:24;10.30;;;5.80;;
49488;SDS011;35382;51.484;11.476;2023-03-29T10:20:09;10.05;;;5.82;;
49488;SDS011;35382;51.484;11.476;2023-03-29T10:21:54;8.60;;;5.38;;
49488;SDS011;35382;51.484;11.476;2023-03-29T10:23:40;8.63;;;5.60;;
49488;SDS011;35382;51.484;11.476;2023-03-29T10:25:24;9.07;;;5.78;;
49488;SDS011;35382;51.484;11.476;2023-03-29T10:27:08;8.70;;;5.65;;
49488;SDS011;35382;51.484;11.476;2023-03-29T10:28:53;10.18;;;5.50;;
49488;SDS011;35382;51.484;11.476;2023-03-29T10:30:38;9.05;;;5.43;;
49488;SDS011;35382;51.484;11.476;2023-03-29T10:32:30;8.60;;;5.38;;
49488;SDS011;35382;51.484;11.476;2023-03-29T10:34:13;8.95;;;5.15;;
49488;SDS011;35382;51.484;11.476;2023-03-29T10:36:02;10.13;;;5.88;;
49488;SDS011;35382;51.484;11.476;2023-03-29T10:37:55;9.23;;;5.20;;
49488;SDS011;35382;51.484;11.476;2023-03-29T10:39:38;7.97;;;4.85;;
49488;SDS011;35382;51.484;11.476;2023-03-29T10:41:20;10.32;;;5.90;;
49488;SDS011;35382;51.484;11.476;2023-03-29T10:43:13;8.95;;;5.35;;
49488;SDS011;35382;51.484;11.476;2023-03-29T10:44:57;8.90;;;5.55;;
49488;SDS011;35382;51.484;11.476;2023-03-29T10:46:40;9.25;;;5.70;;
49488;SDS011;35382;51.484;11.476;2023-03-29T10:48:23;7.80;;;5.30;;
49488;SDS011;35382;51.484;11.476;2023-03-29T10:50:10;9.70;;;5.43;;
49488;SDS011;35382;51.484;11.476;2023-03-29T10:51:55;9.43;;;5.50;;
49488;SDS011;35382;51.484;11.476;2023-03-29T10:53:36;9.55;;;5.55;;
49488;SDS011;35382;51.484;11.476;2023-03-29T10:55:17;10.10;;;5.45;;